createdAt,value
2023-05-21T00:02:21.387Z,97258.34
2023-05-21T00:04:49.001Z,97254.69
2023-05-21T00:07:16.624Z,97265.84
2023-05-21T00:09:44.217Z,97255.03
2023-05-21T00:12:11.781Z,97260.66
2023-05-21T00:14:39.385Z,97250.88
2023-05-21T00:17:06.967Z,97245.13
2023-05-21T00:19:34.544Z,97253.56
2023-05-21T00:22:03.670Z,97247.56
2023-05-21T00:24:31.271Z,97242.50
2023-05-21T00:26:59.655Z,97246.97
2023-05-21T00:29:27.793Z,97245.94
2023-05-21T00:31:56.013Z,97241.16
2023-05-21T00:34:23.728Z,97238.28
2023-05-21T00:36:53.354Z,97240.66
2023-05-21T00:39:21.172Z,97231.94
2023-05-21T00:41:48.816Z,97236.28
2023-05-21T00:44:18.325Z,97228.03
2023-05-21T00:46:48.766Z,97232.84
2023-05-21T00:49:17.050Z,97229.56
2023-05-21T00:51:45.248Z,97228.84
2023-05-21T00:54:13.094Z,97229.28
2023-05-21T00:56:41.380Z,97226.81
2023-05-21T00:59:09.170Z,97215.03
2023-05-21T01:01:37.227Z,97223.81
2023-05-21T01:04:05.119Z,97219.94
2023-05-21T01:06:35.764Z,97216.44
2023-05-21T01:09:05.450Z,97221.81
2023-05-21T01:11:44.717Z,97215.00
2023-05-21T01:14:13.514Z,97212.50
2023-05-21T01:16:46.334Z,97210.28
2023-05-21T01:19:20.803Z,97206.16
2023-05-21T01:21:56.742Z,97205.66
2023-05-21T01:24:24.450Z,97214.78
2023-05-21T01:26:52.919Z,97205.47
2023-05-21T01:29:20.772Z,97210.28
2023-05-21T01:31:56.656Z,97206.34
2023-05-21T01:35:12.895Z,97203.84
2023-05-21T01:37:55.241Z,97209.91
2023-05-21T01:40:35.398Z,97210.97
2023-05-21T01:43:05.713Z,97197.91
2023-05-21T01:45:39.320Z,97194.19
2023-05-21T01:48:09.346Z,97196.88
2023-05-21T01:50:39.166Z,97196.50
2023-05-21T01:53:07.036Z,97188.03
2023-05-21T01:55:35.712Z,97199.91
2023-05-21T01:58:03.534Z,97198.66
2023-05-21T02:00:32.615Z,97193.72
2023-05-21T02:03:00.453Z,97186.47
2023-05-21T02:05:28.270Z,97186.91
2023-05-21T02:07:57.021Z,97188.16
2023-05-21T02:10:24.568Z,97191.75
2023-05-21T02:12:52.524Z,97191.16
2023-05-21T02:15:20.235Z,97190.78
2023-05-21T02:17:48.122Z,97199.06
2023-05-21T02:20:16.187Z,97190.00
2023-05-21T02:22:47.350Z,97188.22
2023-05-21T02:25:18.233Z,97194.50
2023-05-21T02:27:46.934Z,97183.56
2023-05-21T02:30:16.110Z,97182.94
2023-05-21T02:32:44.776Z,97178.63
2023-05-21T02:35:13.480Z,97183.19
2023-05-21T02:37:41.387Z,97182.59
2023-05-21T02:40:10.173Z,97177.56
2023-05-21T02:42:40.110Z,97176.53
2023-05-21T02:45:13.447Z,97183.34
2023-05-21T02:47:43.502Z,97176.09
2023-05-21T02:50:11.387Z,97184.63
2023-05-21T02:52:46.782Z,97178.16
2023-05-21T02:55:14.494Z,97179.81
2023-05-21T02:57:42.046Z,97180.63
2023-05-21T03:00:11.479Z,97175.94
2023-05-21T03:02:40.796Z,97171.94
2023-05-21T03:05:09.699Z,97173.63
2023-05-21T03:07:37.266Z,97176.09
2023-05-21T03:10:06.489Z,97173.63
2023-05-21T03:12:34.057Z,97170.31
2023-05-21T03:15:01.659Z,97171.13
2023-05-21T03:17:47.539Z,97167.03
2023-05-21T03:20:18.561Z,97169.47
2023-05-21T03:22:46.578Z,97176.16
2023-05-21T03:25:14.639Z,97172.63
2023-05-21T03:27:42.299Z,97171.66
2023-05-21T03:30:25.731Z,97164.16
2023-05-21T03:33:13.977Z,97169.97
2023-05-21T03:35:43.605Z,97169.78
2023-05-21T03:38:11.424Z,97164.59
2023-05-21T03:40:38.974Z,97167.28
2023-05-21T03:43:06.868Z,97167.28
2023-05-21T03:45:35.018Z,97163.56
2023-05-21T03:48:26.121Z,97158.59
2023-05-21T03:50:53.954Z,97168.41
2023-05-21T03:53:21.585Z,97168.84
2023-05-21T03:55:55.270Z,97169.88
2023-05-21T03:58:24.858Z,97165.94
2023-05-21T04:00:52.574Z,97176.13
2023-05-21T04:03:20.250Z,97175.56
2023-05-21T04:05:48.652Z,97178.47
2023-05-21T04:08:16.331Z,97178.25
2023-05-21T04:10:43.966Z,97178.25
2023-05-21T04:13:11.515Z,97175.38
2023-05-21T04:15:39.198Z,97176.44
2023-05-21T04:18:07.345Z,97192.59
2023-05-21T04:20:35.029Z,97191.53
2023-05-21T04:23:03.425Z,97193.22
2023-05-21T04:25:30.995Z,97193.00
2023-05-21T04:27:58.622Z,97197.31
2023-05-21T04:30:26.210Z,97201.06
2023-05-21T04:32:54.810Z,97202.50
2023-05-21T04:35:23.368Z,97202.28
2023-05-21T04:37:52.061Z,97198.91
2023-05-21T04:40:24.229Z,97206.41
2023-05-21T04:42:51.869Z,97208.69
2023-05-21T04:45:24.526Z,97206.59
2023-05-21T04:47:53.315Z,97210.28
2023-05-21T04:50:20.921Z,97208.81
2023-05-21T04:52:49.413Z,97211.06
2023-05-21T04:55:19.062Z,97211.47
2023-05-21T04:57:46.633Z,97213.69
2023-05-21T05:00:14.718Z,97210.56
2023-05-21T05:02:44.065Z,97211.19
2023-05-21T05:05:11.903Z,97206.59
2023-05-21T05:07:39.499Z,97214.25
2023-05-21T05:10:08.088Z,97206.97
2023-05-21T05:12:35.621Z,97210.97
2023-05-21T05:15:03.236Z,97217.38
2023-05-21T05:17:31.912Z,97213.19
2023-05-21T05:19:59.687Z,97213.19
2023-05-21T05:22:27.746Z,97209.91
2023-05-21T05:24:55.342Z,97213.19
2023-05-21T05:27:22.945Z,97208.88
2023-05-21T05:29:50.783Z,97205.09
2023-05-21T05:32:18.342Z,97207.81
2023-05-21T05:34:46.712Z,97203.84
2023-05-21T05:37:14.389Z,97198.47
2023-05-21T05:39:41.985Z,97201.38
2023-05-21T05:42:09.685Z,97198.69
2023-05-21T05:44:37.311Z,97203.25
2023-05-21T05:47:09.099Z,97211.34
2023-05-21T05:49:37.219Z,97204.47
2023-05-21T05:52:05.702Z,97218.31
2023-05-21T05:54:34.015Z,97213.75
2023-05-21T05:57:01.676Z,97218.72
2023-05-21T05:59:29.368Z,97214.50
2023-05-21T06:02:01.404Z,97216.75
2023-05-21T06:04:30.300Z,97216.31
2023-05-21T06:06:59.687Z,97225.44
2023-05-21T06:09:27.371Z,97227.09
2023-05-21T06:11:55.735Z,97221.50
2023-05-21T06:14:23.469Z,97217.72
2023-05-21T06:16:51.129Z,97225.81
2023-05-21T06:19:19.306Z,97224.09
2023-05-21T06:21:47.167Z,97220.72
2023-05-21T06:24:15.397Z,97229.81
2023-05-21T06:26:42.971Z,97227.94
2023-05-21T06:29:12.598Z,97224.16
2023-05-21T06:31:41.885Z,97217.09
2023-05-21T06:34:10.602Z,97224.16
2023-05-21T06:36:38.329Z,97230.53
2023-05-21T06:39:05.980Z,97223.16
2023-05-21T06:41:33.659Z,97217.13
2023-05-21T06:44:05.880Z,97222.81
2023-05-21T06:47:11.599Z,97222.63
2023-05-21T06:49:39.177Z,97221.81
2023-05-21T06:52:07.071Z,97222.31
2023-05-21T06:54:35.112Z,97224.19
2023-05-21T06:57:02.838Z,97224.25
2023-05-21T06:59:31.997Z,97223.22
2023-05-21T07:02:00.921Z,97226.63
2023-05-21T07:04:29.497Z,97232.50
2023-05-21T07:06:57.122Z,97223.94
2023-05-21T07:09:25.309Z,97227.03
2023-05-21T07:11:53.291Z,97224.66
2023-05-21T07:14:21.824Z,97224.44
2023-05-21T07:16:49.401Z,97228.56
2023-05-21T07:19:17.004Z,97222.31
2023-05-21T07:21:46.257Z,97222.91
2023-05-21T07:24:13.825Z,97220.78
2023-05-21T07:26:42.119Z,97224.78
2023-05-21T07:29:11.523Z,97218.47
2023-05-21T07:31:39.316Z,97222.03
2023-05-21T07:34:07.673Z,97226.59
2023-05-21T07:36:35.318Z,97229.56
2023-05-21T07:39:03.849Z,97229.22
2023-05-21T07:41:32.664Z,97226.06
2023-05-21T07:44:02.889Z,97224.75
2023-05-21T07:46:32.742Z,97225.34
2023-05-21T07:49:00.422Z,97225.47
2023-05-21T07:51:28.799Z,97227.25
2023-05-21T07:53:56.488Z,97228.19
2023-05-21T07:56:32.364Z,97225.94
2023-05-21T07:59:00.178Z,97224.63
2023-05-21T08:01:31.404Z,97223.94
2023-05-21T08:04:05.924Z,97216.75
2023-05-21T08:06:37.438Z,97222.03
2023-05-21T08:09:06.241Z,97218.84
2023-05-21T08:11:33.878Z,97224.34
2023-05-21T08:14:01.428Z,97226.00
2023-05-21T08:16:29.036Z,97216.13
2023-05-21T08:18:56.652Z,97222.94
2023-05-21T08:21:24.332Z,97219.63
2023-05-21T08:23:55.148Z,97220.22
2023-05-21T08:26:22.709Z,97217.03
2023-05-21T08:28:50.277Z,97212.56
2023-05-21T08:31:21.340Z,97212.66
2023-05-21T08:33:53.892Z,97225.72
2023-05-21T08:36:35.988Z,97223.44
2023-05-21T08:39:08.982Z,97221.22
2023-05-21T08:41:41.332Z,97222.28
2023-05-21T08:44:13.298Z,97227.44
2023-05-21T08:46:45.092Z,97225.81
2023-05-21T08:49:17.442Z,97229.28
2023-05-21T08:51:46.982Z,97226.75
2023-05-21T08:54:14.774Z,97232.63
2023-05-21T08:56:47.045Z,97229.75
2023-05-21T08:59:19.601Z,97228.28
2023-05-21T09:01:49.971Z,97226.25
2023-05-21T09:04:27.566Z,97227.63
2023-05-21T09:06:57.797Z,97220.19
2023-05-21T09:10:02.616Z,97230.16
2023-05-21T09:12:30.517Z,97228.31
2023-05-21T09:15:01.224Z,97226.78
2023-05-21T09:17:33.560Z,97229.66
2023-05-21T09:20:15.903Z,97229.31
2023-05-21T09:22:51.388Z,97221.66
2023-05-21T09:25:25.293Z,97226.06
2023-05-21T09:27:52.895Z,97225.91
2023-05-21T09:30:24.109Z,97226.03
2023-05-21T09:32:59.516Z,97224.03
2023-05-21T09:35:27.937Z,97225.81
2023-05-21T09:37:57.302Z,97228.09
2023-05-21T09:40:25.068Z,97226.81
2023-05-21T09:42:54.856Z,97219.56
2023-05-21T09:45:25.447Z,97229.94
2023-05-21T09:47:56.543Z,97217.25
2023-05-21T09:50:28.270Z,97229.56
2023-05-21T09:52:56.119Z,97231.53
2023-05-21T09:55:26.507Z,97226.47
2023-05-21T09:57:54.084Z,97229.31
2023-05-21T10:00:27.562Z,97226.69
2023-05-21T10:03:01.666Z,97229.00
2023-05-21T10:05:30.778Z,97223.34
2023-05-21T10:08:02.236Z,97233.47
2023-05-21T10:10:32.247Z,97228.13
2023-05-21T10:13:09.112Z,97233.09
2023-05-21T10:15:44.917Z,97231.81
2023-05-21T10:18:13.870Z,97226.63
2023-05-21T10:20:42.553Z,97230.16
2023-05-21T10:23:10.425Z,97233.19
2023-05-21T10:25:38.234Z,97224.50
2023-05-21T10:28:07.039Z,97224.78
2023-05-21T10:30:36.246Z,97215.91
2023-05-21T10:33:05.701Z,97222.75
2023-05-21T10:35:34.168Z,97223.06
2023-05-21T10:38:04.454Z,97222.88
2023-05-21T10:40:32.303Z,97223.75
2023-05-21T10:43:25.096Z,97227.63
2023-05-21T10:46:53.233Z,97229.31
2023-05-21T10:49:41.908Z,97215.72
2023-05-21T10:52:33.864Z,97224.19
2023-05-21T10:55:42.786Z,97216.28
2023-05-21T10:58:44.593Z,97213.03
2023-05-21T11:01:12.684Z,97208.16
2023-05-21T11:03:40.709Z,97212.25
2023-05-21T11:06:08.484Z,97205.47
2023-05-21T11:08:37.164Z,97214.19
2023-05-21T11:11:05.158Z,97212.56
2023-05-21T11:13:49.263Z,97210.16
2023-05-21T11:16:18.247Z,97209.06
2023-05-21T11:18:45.850Z,97209.88
2023-05-21T11:21:22.859Z,97207.44
2023-05-21T11:24:02.890Z,97217.53
2023-05-21T11:26:55.144Z,97209.88
2023-05-21T11:29:40.242Z,97208.78
2023-05-21T11:32:09.560Z,97206.88
2023-05-21T11:34:42.134Z,97196.50
2023-05-21T11:37:20.673Z,97203.06
2023-05-21T11:39:50.466Z,97202.78
2023-05-21T11:42:38.672Z,97204.97
2023-05-21T11:45:07.166Z,97197.34
2023-05-21T11:47:34.774Z,97197.34
2023-05-21T11:50:04.120Z,97196.78
2023-05-21T11:52:33.127Z,97190.22
2023-05-21T11:55:01.126Z,97192.38
2023-05-21T11:57:31.088Z,97198.13
2023-05-21T12:00:01.323Z,97199.78
2023-05-21T12:02:32.640Z,97199.47
2023-05-21T12:05:00.695Z,97198.63
2023-05-21T12:07:32.125Z,97202.44
2023-05-21T12:10:01.019Z,97198.53
2023-05-21T12:12:38.557Z,97204.81
2023-05-21T12:15:13.826Z,97202.84
2023-05-21T12:17:41.490Z,97200.69
2023-05-21T12:20:10.633Z,97201.19
2023-05-21T12:22:42.678Z,97208.56
2023-05-21T12:25:10.731Z,97201.09
2023-05-21T12:27:38.633Z,97200.03
2023-05-21T12:30:08.257Z,97192.06
2023-05-21T12:32:38.071Z,97196.41
2023-05-21T12:35:06.233Z,97192.00
2023-05-21T12:37:35.796Z,97196.63
2023-05-21T12:40:05.099Z,97194.38
2023-05-21T12:42:36.540Z,97197.94
2023-05-21T12:45:09.190Z,97190.78
2023-05-21T12:47:37.182Z,97192.34
2023-05-21T12:50:09.579Z,97186.06
2023-05-21T12:52:37.309Z,97191.78
2023-05-21T12:55:06.219Z,97195.34
2023-05-21T12:57:38.792Z,97195.81
2023-05-21T13:00:13.119Z,97196.34
2023-05-21T13:02:43.553Z,97192.19
2023-05-21T13:05:19.500Z,97192.72
2023-05-21T13:07:47.712Z,97195.69
2023-05-21T13:10:16.790Z,97194.88
2023-05-21T13:12:45.409Z,97188.84
2023-05-21T13:15:13.114Z,97199.97
2023-05-21T13:17:40.864Z,97195.31
2023-05-21T13:20:15.156Z,97197.00
2023-05-21T13:22:46.716Z,97192.88
2023-05-21T13:25:25.052Z,97193.34
2023-05-21T13:27:53.817Z,97189.78
2023-05-21T13:30:22.333Z,97189.25
2023-05-21T13:32:50.274Z,97196.06
2023-05-21T13:35:18.172Z,97188.97
2023-05-21T13:37:45.960Z,97196.59
2023-05-21T13:40:16.522Z,97195.31
2023-05-21T13:42:46.930Z,97187.47
2023-05-21T13:45:17.616Z,97186.72
2023-05-21T13:47:47.008Z,97189.16
2023-05-21T13:50:15.793Z,97194.00
2023-05-21T13:52:43.497Z,97190.16
2023-05-21T13:55:11.181Z,97191.25
2023-05-21T13:57:40.441Z,97193.97
2023-05-21T14:00:10.496Z,97190.47
2023-05-21T14:02:38.259Z,97192.41
2023-05-21T14:05:06.446Z,97200.00
2023-05-21T14:07:34.357Z,97195.09
2023-05-21T14:10:02.819Z,97191.75
2023-05-21T14:12:31.041Z,97199.72
2023-05-21T14:14:58.736Z,97196.47
2023-05-21T14:17:26.314Z,97193.81
2023-05-21T14:19:54.892Z,97190.22
2023-05-21T14:22:24.724Z,97185.59
2023-05-21T14:24:52.873Z,97187.00
2023-05-21T14:27:20.771Z,97182.63
2023-05-21T14:29:48.514Z,97177.94
2023-05-21T14:32:18.423Z,97178.13
2023-05-21T14:34:46.094Z,97181.63
2023-05-21T14:37:13.707Z,97183.91
2023-05-21T14:39:41.291Z,97176.50
2023-05-21T14:42:08.898Z,97178.34
2023-05-21T14:44:36.536Z,97180.19
2023-05-21T14:47:04.354Z,97181.59
2023-05-21T14:49:32.013Z,97173.63
2023-05-21T14:51:59.788Z,97174.47
2023-05-21T14:54:27.621Z,97167.28
2023-05-21T14:56:55.614Z,97165.97
2023-05-21T14:59:23.388Z,97169.81
2023-05-21T15:01:51.253Z,97170.88
2023-05-21T15:04:18.962Z,97170.06
2023-05-21T15:06:46.770Z,97164.31
2023-05-21T15:09:14.407Z,97162.41
2023-05-21T15:11:43.908Z,97167.91
2023-05-21T15:14:12.137Z,97165.97
2023-05-21T15:16:39.850Z,97158.84
2023-05-21T15:19:07.742Z,97156.44
2023-05-21T15:21:35.380Z,97157.50
2023-05-21T15:24:03.136Z,97157.81
2023-05-21T15:26:30.819Z,97156.47
2023-05-21T15:28:58.348Z,97156.47
2023-05-21T15:31:25.924Z,97154.25
2023-05-21T15:33:53.683Z,97157.59
2023-05-21T15:36:21.246Z,97147.94
2023-05-21T15:38:48.817Z,97155.53
2023-05-21T15:41:16.399Z,97152.00
2023-05-21T15:43:46.024Z,97155.84
2023-05-21T15:46:13.590Z,97156.94
2023-05-21T15:48:41.154Z,97157.72
2023-05-21T15:51:08.793Z,97156.78
2023-05-21T15:53:36.485Z,97155.00
2023-05-21T15:56:04.372Z,97148.22
2023-05-21T15:58:32.117Z,97152.00
2023-05-21T16:00:59.818Z,97154.69
2023-05-21T16:03:27.489Z,97157.47
2023-05-21T16:05:55.298Z,97154.97
2023-05-21T16:08:22.926Z,97164.69
2023-05-21T16:10:50.612Z,97159.03
2023-05-21T16:13:18.166Z,97158.16
2023-05-21T16:15:45.973Z,97162.25
2023-05-21T16:18:13.546Z,97160.38
2023-05-21T16:20:41.161Z,97163.88
2023-05-21T16:23:08.871Z,97164.91
2023-05-21T16:25:36.924Z,97157.06
2023-05-21T16:28:05.072Z,97159.28
2023-05-21T16:30:32.762Z,97152.88
2023-05-21T16:33:00.536Z,97159.94
2023-05-21T16:35:28.170Z,97159.69
2023-05-21T16:37:55.888Z,97163.72
2023-05-21T16:40:23.856Z,97159.31
2023-05-21T16:42:53.167Z,97156.38
2023-05-21T16:45:21.512Z,97160.78
2023-05-21T16:47:51.149Z,97156.34
2023-05-21T16:50:21.818Z,97161.41
2023-05-21T16:52:49.368Z,97156.47
2023-05-21T16:55:16.938Z,97154.97
2023-05-21T16:57:44.620Z,97153.69
2023-05-21T17:00:12.917Z,97159.84
2023-05-21T17:02:40.627Z,97156.78
2023-05-21T17:05:08.404Z,97153.19
2023-05-21T17:07:36.076Z,97154.56
2023-05-21T17:10:04.707Z,97151.84
2023-05-21T17:12:32.308Z,97153.84
2023-05-21T17:15:00.306Z,97150.06
2023-05-21T17:17:28.156Z,97152.84
2023-05-21T17:19:56.669Z,97153.75
2023-05-21T17:22:24.371Z,97147.28
2023-05-21T17:24:52.007Z,97152.47
2023-05-21T17:27:19.590Z,97149.44
2023-05-21T17:29:47.125Z,97156.38
2023-05-21T17:32:14.961Z,97151.97
2023-05-21T17:34:43.642Z,97154.19
2023-05-21T17:37:11.259Z,97155.56
2023-05-21T17:39:38.806Z,97150.97
2023-05-21T17:42:06.467Z,97162.19
2023-05-21T17:44:34.047Z,97160.59
2023-05-21T17:47:01.708Z,97154.13
2023-05-21T17:49:29.239Z,97163.97
2023-05-21T17:51:56.834Z,97158.53
2023-05-21T17:54:24.367Z,97157.19
2023-05-21T17:56:52.075Z,97164.25
2023-05-21T17:59:21.112Z,97170.03
2023-05-21T18:01:48.713Z,97171.91
2023-05-21T18:04:16.376Z,97170.28
2023-05-21T18:06:44.010Z,97172.50
2023-05-21T18:09:14.187Z,97166.78
2023-05-21T18:11:44.941Z,97168.66
2023-05-21T18:14:12.593Z,97173.84
2023-05-21T18:16:40.940Z,97174.69
2023-05-21T18:19:08.673Z,97174.66
2023-05-21T18:21:37.157Z,97169.75
2023-05-21T18:24:06.298Z,97170.53
2023-05-21T18:26:33.840Z,97174.59
2023-05-21T18:29:01.522Z,97176.25
2023-05-21T18:31:29.096Z,97173.75
2023-05-21T18:33:56.701Z,97176.22
2023-05-21T18:36:26.537Z,97173.19
2023-05-21T18:38:54.161Z,97170.72
2023-05-21T18:41:22.365Z,97167.69
2023-05-21T18:43:49.951Z,97160.28
2023-05-21T18:46:17.640Z,97169.28
2023-05-21T18:48:46.244Z,97171.69
2023-05-21T18:51:13.855Z,97170.06
2023-05-21T18:53:41.378Z,97173.03
2023-05-21T18:56:10.223Z,97179.84
2023-05-21T18:58:38.318Z,97177.34
2023-05-21T19:01:06.675Z,97182.78
2023-05-21T19:03:34.209Z,97187.38
2023-05-21T19:06:01.810Z,97188.41
2023-05-21T19:08:29.360Z,97184.53
2023-05-21T19:10:56.937Z,97187.25
2023-05-21T19:13:24.652Z,97187.19
2023-05-21T19:15:52.393Z,97195.56
2023-05-21T19:18:20.017Z,97203.44
2023-05-21T19:20:47.574Z,97197.94
2023-05-21T19:23:15.226Z,97192.72
2023-05-21T19:25:42.827Z,97204.13
2023-05-21T19:28:10.432Z,97202.44
2023-05-21T19:30:38.202Z,97199.69
2023-05-21T19:33:06.363Z,97209.69
2023-05-21T19:35:34.088Z,97214.00
2023-05-21T19:38:03.391Z,97201.44
2023-05-21T19:40:33.389Z,97205.47
2023-05-21T19:43:01.232Z,97212.50
2023-05-21T19:45:28.857Z,97212.19
2023-05-21T19:47:57.230Z,97216.50
2023-05-21T19:50:25.003Z,97213.47
2023-05-21T19:52:53.401Z,97213.38
2023-05-21T19:55:22.796Z,97215.50
2023-05-21T19:57:50.557Z,97218.97
2023-05-21T20:00:18.846Z,97217.50
2023-05-21T20:02:46.674Z,97218.53
2023-05-21T20:05:14.468Z,97223.66
2023-05-21T20:07:42.261Z,97226.09
2023-05-21T20:10:10.055Z,97220.56
2023-05-21T20:12:38.526Z,97221.06
2023-05-21T20:15:07.105Z,97227.03
2023-05-21T20:17:35.853Z,97228.34
2023-05-21T20:20:07.372Z,97225.34
2023-05-21T20:22:34.909Z,97225.00
2023-05-21T20:25:03.783Z,97222.78
2023-05-21T20:27:31.934Z,97219.50
2023-05-21T20:29:59.561Z,97218.13
2023-05-21T20:32:27.517Z,97210.47
2023-05-21T20:35:03.320Z,97214.53
2023-05-21T20:37:32.742Z,97216.66
2023-05-21T20:40:00.454Z,97211.94
2023-05-21T20:42:33.902Z,97216.75
2023-05-21T20:45:01.774Z,97211.69
2023-05-21T20:47:30.066Z,97206.97
2023-05-21T20:50:02.709Z,97217.44
2023-05-21T20:52:30.830Z,97211.69
2023-05-21T20:54:59.559Z,97207.25
2023-05-21T20:57:28.249Z,97208.25
2023-05-21T20:59:56.152Z,97215.25
2023-05-21T21:02:23.800Z,97216.25
2023-05-21T21:04:51.367Z,97222.19
2023-05-21T21:07:19.637Z,97224.31
2023-05-21T21:09:48.992Z,97220.19
2023-05-21T21:12:26.131Z,97216.34
2023-05-21T21:14:54.931Z,97225.47
2023-05-21T21:17:23.160Z,97221.28
2023-05-21T21:19:50.896Z,97229.06
2023-05-21T21:22:18.628Z,97222.22
2023-05-21T21:24:46.970Z,97228.13
2023-05-21T21:27:14.549Z,97225.09
2023-05-21T21:29:42.273Z,97224.75
2023-05-21T21:32:09.830Z,97226.81
2023-05-21T21:34:37.366Z,97223.28
2023-05-21T21:37:05.580Z,97222.13
2023-05-21T21:39:33.154Z,97227.47
2023-05-21T21:42:00.827Z,97226.56
2023-05-21T21:44:28.471Z,97221.63
2023-05-21T21:46:56.047Z,97223.28
2023-05-21T21:49:23.585Z,97226.22
2023-05-21T21:51:51.396Z,97236.72
2023-05-21T21:54:18.907Z,97223.06
2023-05-21T21:56:46.501Z,97224.97
2023-05-21T21:59:14.116Z,97225.47
2023-05-21T22:01:42.777Z,97225.38
2023-05-21T22:04:11.224Z,97231.53
2023-05-21T22:06:41.354Z,97221.06
2023-05-21T22:09:08.936Z,97226.97
2023-05-21T22:11:36.585Z,97222.03
2023-05-21T22:14:05.276Z,97220.72
2023-05-21T22:16:33.913Z,97216.38
2023-05-21T22:19:01.563Z,97228.53
2023-05-21T22:21:32.735Z,97214.88
2023-05-21T22:24:00.569Z,97219.09
2023-05-21T22:26:28.085Z,97220.06
2023-05-21T22:28:56.019Z,97215.69
2023-05-21T22:31:23.580Z,97214.31
2023-05-21T22:33:51.164Z,97208.53
2023-05-21T22:36:18.756Z,97211.72
2023-05-21T22:38:46.360Z,97212.44
2023-05-21T22:41:13.954Z,97215.63
2023-05-21T22:43:41.572Z,97225.88
2023-05-21T22:46:09.104Z,97225.28
2023-05-21T22:48:37.063Z,97224.47
2023-05-21T22:51:05.430Z,97225.06
2023-05-21T22:53:33.813Z,97224.25
2023-05-21T22:56:01.604Z,97218.47
2023-05-21T22:58:29.209Z,97221.66
2023-05-21T23:00:56.847Z,97211.31
2023-05-21T23:03:24.463Z,97219.66
2023-05-21T23:05:52.291Z,97218.28
2023-05-21T23:08:19.943Z,97213.91
2023-05-21T23:10:47.530Z,97213.31
2023-05-21T23:13:15.130Z,97227.34
2023-05-21T23:15:43.591Z,97223.44
2023-05-21T23:18:11.681Z,97226.41
2023-05-21T23:20:40.914Z,97217.72
2023-05-21T23:23:10.153Z,97219.34
2023-05-21T23:25:37.912Z,97224.28
2023-05-21T23:28:05.676Z,97216.63
2023-05-21T23:30:33.215Z,97220.88
2023-05-21T23:33:01.047Z,97221.91
2023-05-21T23:35:28.728Z,97221.09
2023-05-21T23:37:56.387Z,97216.41
2023-05-21T23:40:24.017Z,97219.00
2023-05-21T23:42:51.634Z,97211.38
2023-05-21T23:45:19.196Z,97222.31
2023-05-21T23:47:46.911Z,97214.88
2023-05-21T23:50:14.649Z,97221.31
2023-05-21T23:52:42.272Z,97217.00
2023-05-21T23:55:12.501Z,97217.22
2023-05-21T23:57:40.904Z,97215.34
